Time;durP1;ratioP1;P1;durP2;ratioP2;P2;SDS_P1;SDS_P2;PMS_P1;PMS_P2;Temp;Humidity;BMP_temperature;BMP_pressure;BME280_temperature;BME280_humidity;BME280_pressure;Samples;Min_cycle;Max_cycle;Signal;HPM_P1;HPM_P2
2022/08/19 00:00:04;;;;;;;845.47;785.90;;;;;;;26.80;57.36;100496.44;686951;28;46466;-60
2022/08/19 00:00:25;;;;;;;836.08;776.83;;;;;;;26.80;57.40;100501.97;686772;28;47525;-59
2022/08/19 00:00:46;;;;;;;829.60;770.58;;;;;;;26.79;57.09;100492.03;686930;28;46379;-62
2022/08/19 00:01:08;;;;;;;822.47;763.63;;;;;;;26.81;57.37;100498.09;687321;28;23437;-59
2022/08/19 00:01:30;;;;;;;825.42;766.45;;;;;;;26.82;56.87;100508.06;687432;28;22403;-60
2022/08/19 00:01:54;;;;;;;818.92;760.15;;;;;;;26.79;56.88;100503.09;684687;28;69429;-60
2022/08/19 00:02:15;;;;;;;827.08;767.97;;;;;;;26.81;56.99;100505.59;685056;28;92207;-60
2022/08/19 00:02:37;;;;;;;829.10;769.97;;;;;;;26.80;57.52;100504.75;687275;28;23382;-60
2022/08/19 00:02:58;;;;;;;817.35;758.50;;;;;;;26.82;57.04;100504.44;687348;28;22469;-60
2022/08/19 00:03:20;;;;;;;821.85;762.95;;;;;;;26.82;57.08;100507.22;687305;28;21557;-59
2022/08/19 00:03:41;;;;;;;811.60;753.00;;;;;;;26.81;57.02;100500.84;686369;28;46455;-60
2022/08/19 00:04:05;;;;;;;830.28;771.15;;;;;;;26.82;57.58;100512.75;686231;28;45290;-60
2022/08/19 00:04:30;;;;;;;820.15;761.35;;;;;;;26.81;57.55;100502.81;684611;28;92442;-60
2022/08/19 00:04:53;;;;;;;825.25;766.25;;;;;;;26.81;57.18;100506.41;684471;28;92281;-60
2022/08/19 00:05:15;;;;;;;834.97;775.70;;;;;;;26.82;57.18;100508.06;685273;28;69453;-59
2022/08/19 00:05:37;;;;;;;820.80;761.95;;;;;;;26.81;57.16;100509.16;686256;28;46312;-59
2022/08/19 00:05:59;;;;;;;824.50;765.60;;;;;;;26.81;57.63;100511.94;686510;28;45347;-59
2022/08/19 00:06:21;;;;;;;826.67;767.70;;;;;;;26.81;57.11;100511.13;686397;28;45287;-59
2022/08/19 00:06:43;;;;;;;812.10;753.55;;;;;;;26.78;57.67;100507.81;685732;28;45154;-60
2022/08/19 00:07:05;;;;;;;820.10;761.15;;;;;;;26.79;57.61;100503.91;685848;28;45230;-60
2022/08/19 00:07:26;;;;;;;841.78;782.30;;;;;;;26.79;57.29;100503.09;686359;28;45226;-60
2022/08/19 00:07:48;;;;;;;829.72;770.63;;;;;;;26.77;57.63;100500.63;687228;28;22415;-59
2022/08/19 00:08:10;;;;;;;835.10;775.80;;;;;;;26.79;57.23;100498.38;686478;28;45241;-59
2022/08/19 00:08:32;;;;;;;821.17;762.25;;;;;;;26.79;57.50;100500.34;687997;28;47686;-59
2022/08/19 00:08:53;;;;;;;851.25;791.47;;;;;;;26.79;57.41;100506.69;689098;28;45279;-60
2022/08/19 00:09:17;;;;;;;832.60;773.45;;;;;;;26.79;57.68;100503.09;689238;28;22381;-61
2022/08/19 00:09:39;;;;;;;822.17;763.38;;;;;;;26.78;57.51;100499.50;688132;28;69514;-60
2022/08/19 00:10:02;;;;;;;821.90;763.00;;;;;;;26.77;57.59;100489.53;687809;28;69421;-59
2022/08/19 00:10:24;;;;;;;829.28;770.20;;;;;;;26.77;57.35;100489.53;687123;28;92182;-60
2022/08/19 00:10:45;;;;;;;828.47;769.42;;;;;;;26.80;57.71;100499.19;688574;28;44150;-59
2022/08/19 00:11:07;;;;;;;823.40;764.50;;;;;;;26.79;57.30;100501.16;689706;28;21560;-59
2022/08/19 00:11:29;;;;;;;825.38;766.38;;;;;;;26.77;57.65;100497.84;689341;28;44363;-60
2022/08/19 00:11:51;;;;;;;822.40;763.47;;;;;;;26.79;57.73;100500.34;687951;28;45374;-59
2022/08/19 00:12:13;;;;;;;808.53;750.03;;;;;;;26.79;57.76;100503.09;689150;28;46327;-58
2022/08/19 00:12:35;;;;;;;824.05;765.08;;;;;;;26.79;57.21;100497.56;690040;28;23679;-57
2022/08/19 00:12:57;;;;;;;829.57;770.47;;;;;;;26.79;57.20;100501.16;688024;28;69300;-59
2022/08/19 00:13:18;;;;;;;816.70;757.90;;;;;;;26.79;57.63;100495.59;688189;28;68431;-59
2022/08/19 00:13:39;;;;;;;824.03;765.05;;;;;;;26.80;57.60;100499.19;689826;28;22468;-60
2022/08/19 00:14:01;;;;;;;826.55;767.45;;;;;;;26.78;57.19;100502.25;689742;28;22400;-59
2022/08/19 00:14:24;;;;;;;827.53;768.45;;;;;;;26.78;57.66;100496.72;689916;28;22399;-60
2022/08/19 00:14:45;;;;;;;841.05;781.60;;;;;;;26.75;57.34;100493.72;688380;28;69418;-61
2022/08/19 00:15:11;;;;;;;841.47;782.08;;;;;;;26.78;57.18;100493.13;688881;28;46353;-60
2022/08/19 00:15:33;;;;;;;818.88;760.10;;;;;;;26.79;57.85;100500.34;686804;28;115141;-61
2022/08/19 00:15:55;;;;;;;826.67;767.67;;;;;;;26.79;57.48;100497.56;689242;28;37721;-60
2022/08/19 00:16:18;;;;;;;830.00;770.80;;;;;;;26.79;57.77;100494.78;689867;28;22434;-60
2022/08/19 00:16:41;;;;;;;842.13;782.65;;;;;;;26.78;57.21;100490.34;688319;28;69334;-61
2022/08/19 00:17:06;;;;;;;848.05;788.33;;;;;;;26.78;57.81;100493.94;686330;28;89090;-61
2022/08/19 00:17:27;;;;;;;817.65;758.72;;;;;;;26.78;57.19;100498.66;686112;28;139260;-60
2022/08/19 00:17:49;;;;;;;815.42;756.70;;;;;;;26.74;57.60;100490.13;689487;28;45265;-58
2022/08/19 00:18:10;;;;;;;834.35;775.10;;;;;;;26.76;57.74;100496.19;690157;28;21529;-57
2022/08/19 00:18:33;;;;;;;824.00;765.13;;;;;;;26.75;57.42;100491.75;690573;28;21543;-56
2022/08/19 00:18:55;;;;;;;827.25;768.30;;;;;;;26.76;57.47;100495.38;688834;28;70238;-58
2022/08/19 00:19:16;;;;;;;825.83;766.83;;;;;;;26.73;57.57;100488.47;689744;28;44101;-60
2022/08/19 00:19:38;;;;;;;820.80;762.05;;;;;;;26.76;57.68;100495.38;690558;28;21536;-57
2022/08/19 00:19:59;;;;;;;811.80;753.25;;;;;;;26.77;57.29;100502.56;689604;28;44391;-58
2022/08/19 00:20:22;;;;;;;817.83;759.03;;;;;;;26.76;57.80;100498.16;690646;28;20810;-57
2022/08/19 00:20:43;;;;;;;822.45;763.65;;;;;;;26.76;57.96;100500.91;688895;28;70220;-56
2022/08/19 00:21:07;;;;;;;812.45;753.88;;;;;;;26.75;57.58;100496.47;689598;28;46205;-56
2022/08/19 00:21:28;;;;;;;832.83;773.67;;;;;;;26.74;57.71;100494.81;688606;28;69415;-56
2022/08/19 00:21:51;;;;;;;828.72;769.72;;;;;;;26.75;57.91;100499.25;689791;28;21417;-59
2022/08/19 00:22:12;;;;;;;829.60;770.55;;;;;;;26.72;57.82;100494.28;690889;28;7537;-57
2022/08/19 00:22:34;;;;;;;826.47;767.50;;;;;;;26.71;57.65;100487.09;690599;28;22401;-56
2022/08/19 00:22:57;;;;;;;811.13;752.42;;;;;;;26.71;57.76;100496.25;690307;28;13668;-56
2022/08/19 00:23:18;;;;;;;820.83;761.95;;;;;;;26.72;57.48;100494.28;688702;28;69415;-56
2022/08/19 00:23:40;;;;;;;843.30;783.90;;;;;;;26.71;57.72;100495.41;690375;28;22460;-57
2022/08/19 00:24:01;;;;;;;848.70;789.05;;;;;;;26.72;57.58;100494.28;689458;28;46263;-56
2022/08/19 00:24:24;;;;;;;822.53;763.55;;;;;;;26.71;58.08;100489.88;690152;28;23415;-54
2022/08/19 00:24:45;;;;;;;825.42;766.40;;;;;;;26.70;58.07;100491.81;688779;28;69381;-57
2022/08/19 00:25:08;;;;;;;824.05;765.03;;;;;;;26.71;58.01;100500.94;690374;28;22466;-59
2022/08/19 00:25:29;;;;;;;812.10;753.50;;;;;;;26.72;58.16;100495.13;688860;28;67469;-56
2022/08/19 00:25:51;;;;;;;815.65;757.03;;;;;;;26.70;58.03;100489.06;690487;28;21483;-56
2022/08/19 00:26:14;;;;;;;824.60;765.67;;;;;;;26.69;57.94;100492.09;689686;28;46224;-56
2022/08/19 00:26:35;;;;;;;820.28;761.38;;;;;;;26.69;57.80;100483.81;690843;28;14152;-57
2022/08/19 00:26:57;;;;;;;825.17;766.10;;;;;;;26.69;58.10;100481.03;688075;28;44810;-56
2022/08/19 00:27:19;;;;;;;815.05;756.22;;;;;;;26.69;58.22;100484.63;689334;28;44381;-56
2022/08/19 00:27:40;;;;;;;809.35;750.85;;;;;;;26.69;57.77;100483.81;689544;28;44375;-56
2022/08/19 00:28:02;;;;;;;817.95;759.17;;;;;;;26.69;58.13;100479.06;690049;28;22412;-56
2022/08/19 00:28:24;;;;;;;824.00;765.10;;;;;;;26.70;58.18;100480.75;689416;28;44388;-56
2022/08/19 00:28:45;;;;;;;827.92;768.92;;;;;;;26.69;58.30;100479.06;690320;28;23291;-55
2022/08/19 00:29:10;;;;;;;823.67;764.70;;;;;;;26.69;58.45;100479.06;689620;28;46519;-60
2022/08/19 00:29:31;;;;;;;826.35;767.30;;;;;;;26.66;57.96;100478.84;688874;28;70393;-56
2022/08/19 00:29:53;;;;;;;828.45;769.38;;;;;;;26.66;58.08;100481.63;687708;28;21515;-57
2022/08/19 00:30:14;;;;;;;830.75;771.67;;;;;;;26.64;58.50;100481.88;687762;28;22470;-58
2022/08/19 00:30:36;;;;;;;844.25;784.75;;;;;;;26.66;58.49;100476.91;687634;28;22397;-56
2022/08/19 00:30:57;;;;;;;824.45;765.40;;;;;;;26.66;58.31;100479.69;685974;28;69218;-57
2022/08/19 00:31:18;;;;;;;825.67;766.58;;;;;;;26.67;58.36;100478.56;687553;28;22598;-57
2022/08/19 00:31:41;;;;;;;816.72;758.03;;;;;;;26.69;57.95;100483.81;687934;28;21172;-55
2022/08/19 00:32:03;;;;;;;825.08;766.08;;;;;;;26.67;58.19;100473.00;683290;28;65728;-59
2022/08/19 00:32:26;;;;;;;819.08;760.28;;;;;;;26.62;57.99;100473.03;686927;28;46383;-58
2022/08/19 00:32:47;;;;;;;816.95;758.25;;;;;;;26.66;58.63;100470.53;684501;28;69115;-59
2022/08/19 00:33:08;;;;;;;823.65;764.72;;;;;;;26.67;58.49;100474.97;685068;28;23694;-58
2022/08/19 00:33:30;;;;;;;818.50;759.70;;;;;;;26.67;58.12;100472.19;685127;28;21543;-56
2022/08/19 00:33:52;;;;;;;833.72;774.47;;;;;;;26.66;58.16;100471.38;684471;28;40599;-58
2022/08/19 00:34:14;;;;;;;822.88;763.97;;;;;;;26.66;58.12;100470.53;684292;28;46243;-54
2022/08/19 00:34:35;;;;;;;828.53;769.45;;;;;;;26.65;58.76;100469.72;684203;28;46374;-59
2022/08/19 00:34:57;;;;;;;820.97;762.08;;;;;;;26.64;58.44;100469.97;684700;28;22419;-58
2022/08/19 00:35:19;;;;;;;829.20;770.05;;;;;;;26.65;58.55;100472.47;684060;28;46468;-57
2022/08/19 00:35:40;;;;;;;835.53;776.22;;;;;;;26.66;58.45;100467.75;684290;28;46278;-57
2022/08/19 00:36:04;;;;;;;820.08;761.25;;;;;;;26.64;58.43;100473.56;685012;28;21365;-56
2022/08/19 00:36:25;;;;;;;830.83;771.65;;;;;;;26.64;58.54;100467.22;682736;28;92283;-55
2022/08/19 00:36:46;;;;;;;823.45;764.45;;;;;;;26.64;58.86;100470.78;684302;28;21553;-60
2022/08/19 00:37:09;;;;;;;828.97;769.67;;;;;;;26.62;58.91;100473.03;684143;28;22377;-55
2022/08/19 00:37:30;;;;;;;826.53;767.42;;;;;;;26.61;58.95;100461.16;684000;28;45331;-54
2022/08/19 00:37:51;;;;;;;828.45;769.38;;;;;;;26.60;58.35;100473.31;683953;28;46410;-55
2022/08/19 00:38:12;;;;;;;826.53;767.50;;;;;;;26.59;58.82;100463.34;685460;28;23593;-57
2022/08/19 00:38:34;;;;;;;828.08;769.03;;;;;;;26.58;58.93;100455.34;686592;28;22400;-56
2022/08/19 00:38:56;;;;;;;825.38;766.33;;;;;;;26.57;58.54;100451.75;686586;28;45192;-53
2022/08/19 00:39:17;;;;;;;824.80;765.90;;;;;;;26.58;59.12;100458.94;689363;28;47452;-56
2022/08/19 00:39:39;;;;;;;819.88;761.08;;;;;;;26.57;59.16;100462.84;690324;28;21510;-57
2022/08/19 00:40:00;;;;;;;816.63;757.85;;;;;;;26.57;58.60;100457.28;690191;28;22390;-55
2022/08/19 00:40:24;;;;;;;827.25;768.13;;;;;;;26.57;59.04;100462.00;689466;28;43681;-56
2022/08/19 00:40:46;;;;;;;834.55;775.25;;;;;;;26.55;58.72;100455.91;688051;28;92285;-55
2022/08/19 00:41:08;;;;;;;824.92;765.83;;;;;;;26.54;59.29;100457.06;689447;28;46396;-57
2022/08/19 00:41:29;;;;;;;818.10;759.33;;;;;;;26.50;59.16;100456.78;689768;28;46322;-56
2022/08/19 00:41:52;;;;;;;835.75;776.45;;;;;;;26.52;59.64;100456.50;691018;28;23507;-57
2022/08/19 00:42:15;;;;;;;823.90;764.92;;;;;;;26.52;59.67;100459.28;692404;28;46317;-56
2022/08/19 00:42:37;;;;;;;827.20;768.22;;;;;;;26.52;59.62;100457.34;691690;28;67425;-54
2022/08/19 00:42:58;;;;;;;824.60;765.63;;;;;;;26.50;59.37;100459.56;692343;28;44167;-57
2022/08/19 00:43:23;;;;;;;829.55;770.42;;;;;;;26.49;59.73;100466.22;692313;28;46435;-58
2022/08/19 00:43:57;;;;;;;837.90;778.60;;;;;;;26.48;59.40;100464.56;690882;28;91568;-59
2022/08/19 00:44:21;;;;;;;821.85;762.95;;;;;;;26.47;59.53;100457.38;683134;28;160427;-57
2022/08/19 00:44:43;;;;;;;825.38;766.40;;;;;;;26.50;59.44;100461.50;684720;28;115122;-56
2022/08/19 00:45:10;;;;;;;825.17;766.17;;;;;;;26.50;59.62;100462.31;686742;28;44392;-57
2022/08/19 00:45:35;;;;;;;813.35;754.70;;;;;;;26.51;59.73;100468.72;683912;28;137946;-57
2022/08/19 00:45:57;;;;;;;809.17;750.63;;;;;;;26.51;59.96;100469.53;684477;28;115975;-60
2022/08/19 00:46:20;;;;;;;823.55;764.58;;;;;;;26.51;59.95;100472.31;687673;28;21550;-58
2022/08/19 00:46:44;;;;;;;832.97;773.83;;;;;;;26.49;59.92;100463.47;685475;28;67480;-57
2022/08/19 00:47:06;;;;;;;828.78;769.47;;;;;;;26.51;59.40;100474.25;683849;28;113730;-57
2022/08/19 00:47:27;;;;;;;822.30;763.38;;;;;;;26.50;59.97;100469.81;690090;28;22454;-59
2022/08/19 00:47:48;;;;;;;825.33;766.40;;;;;;;26.44;59.84;100472.66;690538;28;21526;-57
2022/08/19 00:48:10;;;;;;;824.25;765.35;;;;;;;26.49;59.58;100479.22;690433;28;22255;-60
2022/08/19 00:48:34;;;;;;;810.47;752.00;;;;;;;26.47;60.16;100474.00;689802;28;44358;-60
2022/08/19 00:48:56;;;;;;;832.60;773.35;;;;;;;26.47;60.06;100474.00;688113;28;90147;-60
2022/08/19 00:49:19;;;;;;;822.00;763.08;;;;;;;26.47;60.18;100473.16;689681;28;45069;-60
2022/08/19 00:49:45;;;;;;;830.53;771.45;;;;;;;26.48;60.21;100475.66;689024;28;67244;-61
2022/08/19 00:50:09;;;;;;;844.40;784.85;;;;;;;26.49;59.82;100477.31;686299;28;135052;-60
2022/08/19 00:50:32;;;;;;;830.65;771.53;;;;;;;26.46;59.74;100465.97;687943;28;92145;-60
2022/08/19 00:50:55;;;;;;;834.05;774.85;;;;;;;26.48;60.08;100472.88;688552;28;67519;-60
2022/08/19 00:51:16;;;;;;;845.10;785.55;;;;;;;26.45;59.68;100465.16;688522;28;67494;-60
2022/08/19 00:51:37;;;;;;;824.38;765.38;;;;;;;26.47;59.61;100468.44;690212;28;23383;-59
2022/08/19 00:52:04;;;;;;;815.58;756.80;;;;;;;26.46;59.80;100471.50;687078;28;22404;-61
2022/08/19 00:52:29;;;;;;;830.85;771.65;;;;;;;26.47;59.71;100473.16;683749;28;136390;-60
2022/08/19 00:52:51;;;;;;;823.35;764.42;;;;;;;26.48;59.97;100472.06;684520;28;115668;-60
2022/08/19 00:53:14;;;;;;;832.97;773.67;;;;;;;26.44;59.67;100469.03;686877;28;44354;-61
2022/08/19 00:53:37;;;;;;;817.60;758.83;;;;;;;26.47;59.74;100482.28;686070;28;69321;-59
2022/08/19 00:54:00;;;;;;;837.60;778.15;;;;;;;26.48;60.32;100478.41;685924;28;69439;-60
2022/08/19 00:54:21;;;;;;;829.85;770.65;;;;;;;26.47;60.13;100482.28;686105;28;69453;-59
2022/08/19 00:54:43;;;;;;;831.10;772.00;;;;;;;26.46;60.06;100477.03;687143;28;22388;-61
2022/08/19 00:55:11;;;;;;;834.97;775.70;;;;;;;26.47;60.30;100484.25;686608;28;46414;-60
2022/08/19 00:55:34;;;;;;;834.00;774.70;;;;;;;26.44;59.78;100485.63;683311;28;136072;-60
2022/08/19 00:55:58;;;;;;;843.80;784.20;;;;;;;26.44;59.63;100482.88;686610;28;46248;-60
2022/08/19 00:56:19;;;;;;;827.45;768.42;;;;;;;26.42;60.20;100479.56;685046;28;92308;-59
2022/08/19 00:56:41;;;;;;;825.95;766.95;;;;;;;26.40;60.07;100490.94;686151;28;46330;-60
2022/08/19 00:57:06;;;;;;;828.35;769.20;;;;;;;26.34;60.22;100494.06;688735;28;23221;-59
2022/08/19 00:57:30;;;;;;;824.17;765.17;;;;;;;26.32;59.96;100499.06;683611;28;138094;-59
2022/08/19 00:57:54;;;;;;;841.85;782.35;;;;;;;26.30;60.07;100495.72;686143;28;67484;-60
2022/08/19 00:58:21;;;;;;;838.58;779.13;;;;;;;26.32;60.49;100491.56;684556;28;115201;-60
2022/08/19 00:58:43;;;;;;;825.22;766.17;;;;;;;26.30;60.26;100498.50;683826;28;138494;-59
2022/08/19 00:59:08;;;;;;;831.83;772.63;;;;;;;26.29;60.52;100499.63;686812;28;47183;-61
2022/08/19 00:59:29;;;;;;;835.50;776.20;;;;;;;26.31;60.59;100500.16;684650;28;115133;-59
2022/08/19 00:59:52;;;;;;;821.60;762.65;;;;;;;26.32;59.95;100494.34;686823;28;46279;-60
2022/08/19 01:00:17;;;;;;;828.38;769.17;;;;;;;26.36;60.40;100500.13;686888;28;46387;-59
2022/08/19 01:00:38;;;;;;;825.97;766.97;;;;;;;26.37;60.16;100493.47;684641;28;115249;-61
2022/08/19 01:01:00;;;;;;;838.67;779.20;;;;;;;26.38;60.42;100497.88;687516;28;22409;-59
2022/08/19 01:01:21;;;;;;;848.03;788.33;;;;;;;26.37;60.40;100494.28;686834;28;44010;-60
2022/08/19 01:01:44;;;;;;;830.67;771.47;;;;;;;26.38;60.02;100497.88;687042;28;22403;-61
2022/08/19 01:02:06;;;;;;;822.38;763.47;;;;;;;26.36;60.50;100494.56;685924;28;68464;-60
2022/08/19 01:02:27;;;;;;;820.28;761.38;;;;;;;26.33;60.16;100487.69;687809;28;20621;-61
2022/08/19 01:02:49;;;;;;;835.65;776.28;;;;;;;26.35;60.51;100485.44;687668;28;23407;-60
2022/08/19 01:03:13;;;;;;;818.45;759.53;;;;;;;26.33;60.19;100484.06;686851;28;44398;-60
2022/08/19 01:03:34;;;;;;;826.33;767.22;;;;;;;26.38;60.17;100486.78;685236;28;92290;-60
2022/08/19 01:03:55;;;;;;;849.90;790.20;;;;;;;26.39;60.55;100485.69;687608;28;23494;-60
2022/08/19 01:04:16;;;;;;;822.08;763.08;;;;;;;26.39;60.05;100485.69;687693;28;22186;-61
2022/08/19 01:04:38;;;;;;;819.78;760.92;;;;;;;26.39;60.74;100477.38;687727;28;22257;-61
2022/08/19 01:05:01;;;;;;;840.40;781.00;;;;;;;26.38;60.62;100484.88;686821;28;46682;-59
2022/08/19 01:05:27;;;;;;;834.00;774.67;;;;;;;26.37;60.21;100487.94;685784;28;67508;-61
2022/08/19 01:05:49;;;;;;;846.75;787.10;;;;;;;26.36;60.68;100495.38;683734;28;138254;-59
2022/08/19 01:06:11;;;;;;;837.70;778.30;;;;;;;26.37;60.49;100490.69;685247;28;92361;-60
2022/08/19 01:06:33;;;;;;;841.15;781.70;;;;;;;26.37;60.74;100491.50;686973;28;44376;-61
2022/08/19 01:06:55;;;;;;;837.92;778.53;;;;;;;26.35;60.28;100485.44;687579;28;44574;-60
2022/08/19 01:07:17;;;;;;;842.92;783.30;;;;;;;26.36;60.91;100491.81;689463;28;44357;-60
2022/08/19 01:07:40;;;;;;;836.85;777.45;;;;;;;26.33;60.72;100484.06;689609;28;46453;-61
2022/08/19 01:08:04;;;;;;;826.78;767.63;;;;;;;26.34;61.05;100482.97;688522;28;70392;-61
2022/08/19 01:08:28;;;;;;;831.88;772.63;;;;;;;26.33;60.86;100486.84;689168;28;60716;-60
2022/08/19 01:08:49;;;;;;;831.47;772.30;;;;;;;26.33;60.68;100487.69;689477;28;45364;-60
2022/08/19 01:09:10;;;;;;;837.10;777.72;;;;;;;26.31;60.68;100483.56;695470;28;24174;-59
2022/08/19 01:09:32;;;;;;;840.30;780.85;;;;;;;26.32;61.06;100486.03;695710;28;21559;-60
2022/08/19 01:09:54;;;;;;;827.58;768.40;;;;;;;26.31;61.03;100491.84;694593;28;45173;-59
2022/08/19 01:10:18;;;;;;;820.33;761.38;;;;;;;26.31;61.19;100492.69;695523;28;23469;-60
2022/08/19 01:10:42;;;;;;;826.97;767.88;;;;;;;26.30;60.86;100493.81;693663;28;92097;-60
2022/08/19 01:11:04;;;;;;;828.88;769.88;;;;;;;26.30;60.89;100499.34;689388;28;92537;-60
2022/08/19 01:11:34;;;;;;;823.28;764.35;;;;;;;26.30;61.25;100501.25;688543;28;138659;-60
2022/08/19 01:11:56;;;;;;;830.67;771.58;;;;;;;26.28;60.83;100501.56;686530;28;114943;-60
2022/08/19 01:12:18;;;;;;;813.47;754.88;;;;;;;26.26;61.40;100507.38;690032;28;22393;-61
2022/08/19 01:12:39;;;;;;;826.08;767.08;;;;;;;26.28;61.02;100514.56;689358;28;46341;-60
2022/08/19 01:13:02;;;;;;;830.20;771.03;;;;;;;26.24;61.59;100512.38;689238;28;45177;-59
2022/08/19 01:13:26;;;;;;;824.90;765.95;;;;;;;26.26;61.03;100510.16;687549;28;44457;-58
2022/08/19 01:13:47;;;;;;;813.70;755.00;;;;;;;26.28;61.57;100511.81;685294;28;91961;-60
2022/08/19 01:14:09;;;;;;;822.28;763.28;;;;;;;26.28;61.24;100506.28;687521;28;23464;-59
2022/08/19 01:14:31;;;;;;;819.10;760.25;;;;;;;26.28;61.60;100501.56;686889;28;47615;-59
2022/08/19 01:14:53;;;;;;;826.95;767.85;;;;;;;26.29;61.07;100496.88;688237;28;45307;-61
2022/08/19 01:15:17;;;;;;;832.28;772.97;;;;;;;26.29;61.00;100503.22;689391;28;44373;-60
2022/08/19 01:15:40;;;;;;;831.80;772.60;;;;;;;26.28;61.36;100507.09;687924;28;92265;-60
2022/08/19 01:16:06;;;;;;;831.83;772.58;;;;;;;26.29;61.55;100505.16;688676;28;69528;-60
2022/08/19 01:16:28;;;;;;;845.88;786.17;;;;;;;26.29;61.53;100505.16;686193;28;138171;-62
2022/08/19 01:16:54;;;;;;;847.28;787.50;;;;;;;26.29;61.31;100499.63;688880;28;44173;-61
2022/08/19 01:17:22;;;;;;;851.28;791.17;;;;;;;26.28;61.89;100504.31;686362;28;137867;-60
2022/08/19 01:17:44;;;;;;;821.65;762.55;;;;;;;26.24;61.65;100495.78;687216;28;116011;-61
2022/08/19 01:18:08;;;;;;;826.13;766.92;;;;;;;26.24;61.38;100490.25;690342;28;16280;-61
2022/08/19 01:18:30;;;;;;;829.55;770.25;;;;;;;26.25;61.84;100497.44;687956;28;90759;-62
2022/08/19 01:18:53;;;;;;;825.65;766.58;;;;;;;26.25;61.79;100497.44;689511;28;44131;-60
2022/08/19 01:19:20;;;;;;;836.28;776.90;;;;;;;26.23;61.67;100494.13;689463;28;47164;-60
2022/08/19 01:19:42;;;;;;;833.67;774.45;;;;;;;26.22;61.79;100494.41;686465;28;136279;-60
2022/08/19 01:20:04;;;;;;;830.58;771.35;;;;;;;26.20;61.56;100491.91;689427;28;45187;-60
2022/08/19 01:20:26;;;;;;;829.78;770.60;;;;;;;26.19;62.05;100481.97;689517;28;46312;-60
2022/08/19 01:20:48;;;;;;;815.53;756.78;;;;;;;26.18;62.00;100490.56;689542;28;44386;-59
2022/08/19 01:21:15;;;;;;;817.30;758.45;;;;;;;26.17;62.01;100484.19;690279;28;21535;-59
2022/08/19 01:21:40;;;;;;;818.00;759.17;;;;;;;26.16;61.84;100485.31;683734;28;136421;-60
2022/08/19 01:22:04;;;;;;;836.67;777.28;;;;;;;26.13;62.16;100483.13;682786;28;136176;-60
2022/08/19 01:22:30;;;;;;;833.22;774.03;;;;;;;26.10;62.31;100469.88;685048;28;92693;-60
2022/08/19 01:22:54;;;;;;;817.38;758.58;;;;;;;26.11;62.16;100482.56;683421;28;137733;-60
2022/08/19 01:23:15;;;;;;;820.63;761.70;;;;;;;26.06;62.15;100469.59;682358;28;90746;-59
2022/08/19 01:23:43;;;;;;;825.63;766.58;;;;;;;26.07;62.34;100475.97;684070;28;45215;-60
2022/08/19 01:24:05;;;;;;;837.38;777.95;;;;;;;26.03;62.10;100483.19;680697;28;137928;-60
2022/08/19 01:24:26;;;;;;;850.83;791.03;;;;;;;26.02;62.45;100479.59;686119;28;21543;-60
2022/08/19 01:24:47;;;;;;;832.55;773.35;;;;;;;26.00;62.63;100479.06;687352;28;21509;-59
2022/08/19 01:25:09;;;;;;;843.88;784.30;;;;;;;25.99;62.23;100471.88;686671;28;40642;-59
2022/08/19 01:25:33;;;;;;;841.88;782.33;;;;;;;25.96;62.36;100477.97;686377;28;46242;-59
2022/08/19 01:25:55;;;;;;;841.90;782.35;;;;;;;25.95;62.52;100479.06;685925;28;69239;-60
2022/08/19 01:26:18;;;;;;;845.03;785.33;;;;;;;25.91;62.82;100472.47;686596;28;44337;-60
2022/08/19 01:26:43;;;;;;;830.50;771.30;;;;;;;25.89;62.51;100474.66;685899;28;67570;-60
2022/08/19 01:27:05;;;;;;;827.67;768.47;;;;;;;25.86;63.10;100478.00;685359;28;134793;-60
2022/08/19 01:27:37;;;;;;;827.95;768.75;;;;;;;25.83;62.66;100476.66;688709;28;69057;-60
2022/08/19 01:27:58;;;;;;;836.17;776.72;;;;;;;25.82;63.13;100472.22;686136;28;136053;-60
2022/08/19 01:28:25;;;;;;;844.13;784.50;;;;;;;25.77;63.47;100463.13;689517;28;46478;-61
2022/08/19 01:28:48;;;;;;;839.05;779.55;;;;;;;25.76;63.55;100467.84;685952;28;137805;-59
2022/08/19 01:29:10;;;;;;;839.35;779.83;;;;;;;25.74;63.20;100461.78;687770;28;67501;-61
2022/08/19 01:29:31;;;;;;;832.10;772.80;;;;;;;25.72;63.29;100461.22;689384;28;46420;-60
2022/08/19 01:29:54;;;;;;;828.65;769.50;;;;;;;25.69;63.54;100459.00;689965;28;21543;-61
2022/08/19 01:30:17;;;;;;;838.35;778.85;;;;;;;25.67;63.22;100456.56;689351;28;46440;-61
2022/08/19 01:30:39;;;;;;;842.47;782.88;;;;;;;25.65;63.43;100455.19;687735;28;93051;-59
2022/08/19 01:31:00;;;;;;;834.95;775.47;;;;;;;25.63;63.41;100454.66;688764;28;46318;-61
2022/08/19 01:31:23;;;;;;;818.95;760.03;;;;;;;25.59;64.05;100454.38;690342;28;21190;-60
2022/08/19 01:31:45;;;;;;;829.05;769.88;;;;;;;25.59;63.72;100457.13;688057;28;69447;-60
2022/08/19 01:32:07;;;;;;;835.95;776.55;;;;;;;25.58;63.64;100454.66;689440;28;46395;-61
2022/08/19 01:32:30;;;;;;;845.28;785.60;;;;;;;25.57;64.04;100451.06;689616;28;46426;-61
2022/08/19 01:32:52;;;;;;;852.78;792.83;;;;;;;25.52;64.03;100446.41;689291;28;46480;-60
2022/08/19 01:33:14;;;;;;;852.20;792.25;;;;;;;25.54;63.65;100444.16;689449;28;45245;-60
2022/08/19 01:33:36;;;;;;;859.22;799.17;;;;;;;25.55;63.79;100439.50;688768;28;69446;-61
2022/08/19 01:33:57;;;;;;;883.55;822.75;;;;;;;25.52;63.72;100435.34;690269;28;21461;-61
2022/08/19 01:34:19;;;;;;;881.63;820.85;;;;;;;25.57;63.89;100433.66;689413;28;44373;-61
2022/08/19 01:34:41;;;;;;;887.47;826.60;;;;;;;25.56;64.06;100432.00;690387;28;23452;-60
2022/08/19 01:35:04;;;;;;;893.15;832.00;;;;;;;25.53;63.82;100423.19;688498;28;69328;-61
2022/08/19 01:35:30;;;;;;;873.70;813.17;;;;;;;25.54;63.45;100427.56;689457;28;46235;-60
2022/08/19 01:35:51;;;;;;;896.17;835.05;;;;;;;25.54;63.34;100429.53;687111;28;115111;-60
2022/08/19 01:36:16;;;;;;;921.63;859.83;;;;;;;25.53;63.47;100425.94;690213;28;23506;-60
2022/08/19 01:36:41;;;;;;;891.73;830.80;;;;;;;25.54;63.43;100424.81;686476;28;136443;-60
2022/08/19 01:37:07;;;;;;;914.83;853.05;;;;;;;25.54;63.59;100412.94;684254;28;157854;-59
2022/08/19 01:37:30;;;;;;;898.25;837.08;;;;;;;25.55;63.74;100403.53;686360;28;137328;-60
2022/08/19 01:37:55;;;;;;;895.95;834.88;;;;;;;25.54;63.78;100402.69;689486;28;44421;-60
2022/08/19 01:38:21;;;;;;;911.28;849.75;;;;;;;25.52;63.73;100387.53;687059;28;115108;-60
2022/08/19 01:38:43;;;;;;;908.92;847.45;;;;;;;25.53;63.50;100398.28;686220;28;136405;-59
2022/08/19 01:39:07;;;;;;;933.95;871.65;;;;;;;25.53;63.36;100395.53;689413;28;22375;-60
2022/08/19 01:39:29;;;;;;;933.72;871.42;;;;;;;25.50;63.49;100395.25;686854;28;115066;-59
2022/08/19 01:39:50;;;;;;;940.60;878.08;;;;;;;25.50;63.31;100398.88;690042;28;22350;-60
2022/08/19 01:40:11;;;;;;;923.05;861.03;;;;;;;25.46;63.78;100403.31;690102;28;22407;-60
2022/08/19 01:40:34;;;;;;;914.45;852.70;;;;;;;25.44;63.76;100408.28;689194;28;44385;-60
2022/08/19 01:40:58;;;;;;;946.95;884.17;;;;;;;25.40;63.88;100401.69;688580;28;69201;-60
2022/08/19 01:41:19;;;;;;;952.13;889.20;;;;;;;25.38;63.96;100403.06;688609;28;69136;-61